sensor_id;sensor_type;location;lat;lon;timestamp;P1;durP1;ratioP1;P2;durP2;ratioP2
77022;SDS011;65952;51.440;-2.054;2024-01-16T00:01:15;7.30;;;4.53;;
77022;SDS011;65952;51.440;-2.054;2024-01-16T00:03:41;8.32;;;4.60;;
77022;SDS011;65952;51.440;-2.054;2024-01-16T00:06:07;7.35;;;3.95;;
77022;SDS011;65952;51.440;-2.054;2024-01-16T00:08:32;7.57;;;3.88;;
77022;SDS011;65952;51.440;-2.054;2024-01-16T00:10:58;10.48;;;4.00;;
77022;SDS011;65952;51.440;-2.054;2024-01-16T00:13:23;6.57;;;3.53;;
77022;SDS011;65952;51.440;-2.054;2024-01-16T00:15:49;6.40;;;3.65;;
77022;SDS011;65952;51.440;-2.054;2024-01-16T00:18:14;6.55;;;4.20;;
77022;SDS011;65952;51.440;-2.054;2024-01-16T00:20:41;7.15;;;3.92;;
77022;SDS011;65952;51.440;-2.054;2024-01-16T00:23:06;7.85;;;4.30;;
77022;SDS011;65952;51.440;-2.054;2024-01-16T00:25:32;8.50;;;4.45;;
77022;SDS011;65952;51.440;-2.054;2024-01-16T00:27:57;6.47;;;3.88;;
77022;SDS011;65952;51.440;-2.054;2024-01-16T00:30:23;7.53;;;3.83;;
77022;SDS011;65952;51.440;-2.054;2024-01-16T00:32:48;7.40;;;3.95;;
77022;SDS011;65952;51.440;-2.054;2024-01-16T00:35:14;7.00;;;3.83;;
77022;SDS011;65952;51.440;-2.054;2024-01-16T00:37:39;9.20;;;4.03;;
77022;SDS011;65952;51.440;-2.054;2024-01-16T00:40:05;8.60;;;4.55;;
77022;SDS011;65952;51.440;-2.054;2024-01-16T00:42:33;7.95;;;4.10;;
77022;SDS011;65952;51.440;-2.054;2024-01-16T00:44:59;9.27;;;4.68;;
77022;SDS011;65952;51.440;-2.054;2024-01-16T00:47:24;6.22;;;3.80;;
77022;SDS011;65952;51.440;-2.054;2024-01-16T00:49:50;9.75;;;4.13;;
77022;SDS011;65952;51.440;-2.054;2024-01-16T00:52:15;7.47;;;4.30;;
77022;SDS011;65952;51.440;-2.054;2024-01-16T00:54:42;9.45;;;4.25;;
77022;SDS011;65952;51.440;-2.054;2024-01-16T00:57:08;9.27;;;4.32;;
77022;SDS011;65952;51.440;-2.054;2024-01-16T00:59:33;9.48;;;4.30;;
77022;SDS011;65952;51.440;-2.054;2024-01-16T01:01:58;8.48;;;4.07;;
77022;SDS011;65952;51.440;-2.054;2024-01-16T01:04:24;6.32;;;3.58;;
77022;SDS011;65952;51.440;-2.054;2024-01-16T01:06:49;7.45;;;4.05;;
77022;SDS011;65952;51.440;-2.054;2024-01-16T01:09:15;9.35;;;4.25;;
77022;SDS011;65952;51.440;-2.054;2024-01-16T01:11:41;8.57;;;4.25;;
77022;SDS011;65952;51.440;-2.054;2024-01-16T01:14:07;10.05;;;4.50;;
77022;SDS011;65952;51.440;-2.054;2024-01-16T01:16:32;9.60;;;4.55;;
77022;SDS011;65952;51.440;-2.054;2024-01-16T01:18:58;12.07;;;5.18;;
77022;SDS011;65952;51.440;-2.054;2024-01-16T01:21:23;10.13;;;4.63;;
77022;SDS011;65952;51.440;-2.054;2024-01-16T01:23:49;12.98;;;4.75;;
77022;SDS011;65952;51.440;-2.054;2024-01-16T01:26:14;7.93;;;4.60;;
77022;SDS011;65952;51.440;-2.054;2024-01-16T01:28:40;7.82;;;4.18;;
77022;SDS011;65952;51.440;-2.054;2024-01-16T01:31:08;7.78;;;4.65;;
77022;SDS011;65952;51.440;-2.054;2024-01-16T01:33:34;7.65;;;4.30;;
77022;SDS011;65952;51.440;-2.054;2024-01-16T01:36:00;11.57;;;5.30;;
77022;SDS011;65952;51.440;-2.054;2024-01-16T01:38:25;11.25;;;5.10;;
77022;SDS011;65952;51.440;-2.054;2024-01-16T01:40:50;16.60;;;7.28;;
77022;SDS011;65952;51.440;-2.054;2024-01-16T01:43:19;10.65;;;5.68;;
77022;SDS011;65952;51.440;-2.054;2024-01-16T01:48:23;8.63;;;4.13;;
77022;SDS011;65952;51.440;-2.054;2024-01-16T01:50:49;9.10;;;4.30;;
77022;SDS011;65952;51.440;-2.054;2024-01-16T01:53:14;6.20;;;3.47;;
77022;SDS011;65952;51.440;-2.054;2024-01-16T01:55:40;7.35;;;3.63;;
77022;SDS011;65952;51.440;-2.054;2024-01-16T01:58:06;6.78;;;3.72;;
77022;SDS011;65952;51.440;-2.054;2024-01-16T02:00:32;5.75;;;3.45;;
77022;SDS011;65952;51.440;-2.054;2024-01-16T02:02:58;7.68;;;3.42;;
77022;SDS011;65952;51.440;-2.054;2024-01-16T02:05:25;8.50;;;3.80;;
77022;SDS011;65952;51.440;-2.054;2024-01-16T02:07:51;9.13;;;4.18;;
77022;SDS011;65952;51.440;-2.054;2024-01-16T02:10:17;7.25;;;3.80;;
77022;SDS011;65952;51.440;-2.054;2024-01-16T02:12:42;11.15;;;5.72;;
77022;SDS011;65952;51.440;-2.054;2024-01-16T02:15:08;13.68;;;6.13;;
77022;SDS011;65952;51.440;-2.054;2024-01-16T02:17:33;10.40;;;5.30;;
77022;SDS011;65952;51.440;-2.054;2024-01-16T02:19:59;7.97;;;3.92;;
77022;SDS011;65952;51.440;-2.054;2024-01-16T02:22:24;8.73;;;3.78;;
77022;SDS011;65952;51.440;-2.054;2024-01-16T02:24:53;9.38;;;3.80;;
77022;SDS011;65952;51.440;-2.054;2024-01-16T02:27:19;8.85;;;3.95;;
77022;SDS011;65952;51.440;-2.054;2024-01-16T02:29:45;8.60;;;4.07;;
77022;SDS011;65952;51.440;-2.054;2024-01-16T02:32:12;7.13;;;3.50;;
77022;SDS011;65952;51.440;-2.054;2024-01-16T02:34:37;5.95;;;3.70;;
77022;SDS011;65952;51.440;-2.054;2024-01-16T02:37:03;8.45;;;4.13;;
77022;SDS011;65952;51.440;-2.054;2024-01-16T02:39:29;7.50;;;4.00;;
77022;SDS011;65952;51.440;-2.054;2024-01-16T02:41:54;7.82;;;4.45;;
77022;SDS011;65952;51.440;-2.054;2024-01-16T02:44:20;7.25;;;5.00;;
77022;SDS011;65952;51.440;-2.054;2024-01-16T02:46:45;11.45;;;5.00;;
77022;SDS011;65952;51.440;-2.054;2024-01-16T02:49:10;9.07;;;5.05;;
77022;SDS011;65952;51.440;-2.054;2024-01-16T02:51:36;10.50;;;5.10;;
77022;SDS011;65952;51.440;-2.054;2024-01-16T02:54:01;10.40;;;4.80;;
77022;SDS011;65952;51.440;-2.054;2024-01-16T02:56:27;12.52;;;5.63;;
77022;SDS011;65952;51.440;-2.054;2024-01-16T02:58:52;11.73;;;5.40;;
77022;SDS011;65952;51.440;-2.054;2024-01-16T03:01:17;9.65;;;5.63;;
77022;SDS011;65952;51.440;-2.054;2024-01-16T03:03:43;15.00;;;5.80;;
77022;SDS011;65952;51.440;-2.054;2024-01-16T03:06:09;8.38;;;5.38;;
77022;SDS011;65952;51.440;-2.054;2024-01-16T03:08:34;10.30;;;5.75;;
77022;SDS011;65952;51.440;-2.054;2024-01-16T03:11:00;14.02;;;6.70;;
77022;SDS011;65952;51.440;-2.054;2024-01-16T03:13:25;9.38;;;5.85;;
77022;SDS011;65952;51.440;-2.054;2024-01-16T03:15:51;8.95;;;5.10;;
77022;SDS011;65952;51.440;-2.054;2024-01-16T03:18:19;13.73;;;5.82;;
77022;SDS011;65952;51.440;-2.054;2024-01-16T03:20:44;11.15;;;5.65;;
77022;SDS011;65952;51.440;-2.054;2024-01-16T03:23:10;11.13;;;6.13;;
77022;SDS011;65952;51.440;-2.054;2024-01-16T03:25:35;11.43;;;6.53;;
77022;SDS011;65952;51.440;-2.054;2024-01-16T03:28:04;8.70;;;4.85;;
77022;SDS011;65952;51.440;-2.054;2024-01-16T03:30:32;8.98;;;4.75;;
77022;SDS011;65952;51.440;-2.054;2024-01-16T03:32:58;6.93;;;4.53;;
77022;SDS011;65952;51.440;-2.054;2024-01-16T03:35:24;8.45;;;4.60;;
77022;SDS011;65952;51.440;-2.054;2024-01-16T03:37:49;9.60;;;4.10;;
77022;SDS011;65952;51.440;-2.054;2024-01-16T03:40:14;9.00;;;4.50;;
77022;SDS011;65952;51.440;-2.054;2024-01-16T03:42:40;11.95;;;5.55;;
77022;SDS011;65952;51.440;-2.054;2024-01-16T03:45:06;11.48;;;6.03;;
77022;SDS011;65952;51.440;-2.054;2024-01-16T03:47:32;11.75;;;6.20;;
77022;SDS011;65952;51.440;-2.054;2024-01-16T03:49:57;10.88;;;5.85;;
77022;SDS011;65952;51.440;-2.054;2024-01-16T03:52:22;10.80;;;6.00;;
77022;SDS011;65952;51.440;-2.054;2024-01-16T03:54:48;13.75;;;6.13;;
77022;SDS011;65952;51.440;-2.054;2024-01-16T03:57:13;10.48;;;5.90;;
77022;SDS011;65952;51.440;-2.054;2024-01-16T03:59:38;13.00;;;6.60;;
77022;SDS011;65952;51.440;-2.054;2024-01-16T04:02:04;11.98;;;6.40;;
77022;SDS011;65952;51.440;-2.054;2024-01-16T04:04:29;13.05;;;7.00;;
77022;SDS011;65952;51.440;-2.054;2024-01-16T04:06:55;8.60;;;5.38;;
77022;SDS011;65952;51.440;-2.054;2024-01-16T04:09:20;8.50;;;5.05;;
77022;SDS011;65952;51.440;-2.054;2024-01-16T04:11:49;9.88;;;4.80;;
77022;SDS011;65952;51.440;-2.054;2024-01-16T04:14:15;7.35;;;4.47;;
77022;SDS011;65952;51.440;-2.054;2024-01-16T04:16:40;9.93;;;5.00;;
77022;SDS011;65952;51.440;-2.054;2024-01-16T04:19:06;8.52;;;4.28;;
77022;SDS011;65952;51.440;-2.054;2024-01-16T04:21:31;6.70;;;3.67;;
77022;SDS011;65952;51.440;-2.054;2024-01-16T04:23:57;7.68;;;4.10;;
77022;SDS011;65952;51.440;-2.054;2024-01-16T04:26:22;12.75;;;4.40;;
77022;SDS011;65952;51.440;-2.054;2024-01-16T04:28:49;9.65;;;4.20;;
77022;SDS011;65952;51.440;-2.054;2024-01-16T04:31:15;10.52;;;4.07;;
77022;SDS011;65952;51.440;-2.054;2024-01-16T04:33:42;8.15;;;3.53;;
77022;SDS011;65952;51.440;-2.054;2024-01-16T04:36:08;6.93;;;3.47;;
77022;SDS011;65952;51.440;-2.054;2024-01-16T04:38:34;9.02;;;3.45;;
77022;SDS011;65952;51.440;-2.054;2024-01-16T04:41:03;9.25;;;3.30;;
77022;SDS011;65952;51.440;-2.054;2024-01-16T04:43:30;8.00;;;3.20;;
77022;SDS011;65952;51.440;-2.054;2024-01-16T04:46:00;6.85;;;2.85;;
77022;SDS011;65952;51.440;-2.054;2024-01-16T04:48:26;5.63;;;2.95;;
77022;SDS011;65952;51.440;-2.054;2024-01-16T04:50:51;8.00;;;3.05;;
77022;SDS011;65952;51.440;-2.054;2024-01-16T04:53:17;6.38;;;2.90;;
77022;SDS011;65952;51.440;-2.054;2024-01-16T04:55:43;5.90;;;2.35;;
77022;SDS011;65952;51.440;-2.054;2024-01-16T04:58:08;6.25;;;2.78;;
77022;SDS011;65952;51.440;-2.054;2024-01-16T05:00:35;6.30;;;2.50;;
77022;SDS011;65952;51.440;-2.054;2024-01-16T05:03:02;4.70;;;2.50;;
77022;SDS011;65952;51.440;-2.054;2024-01-16T05:05:29;6.10;;;2.58;;
77022;SDS011;65952;51.440;-2.054;2024-01-16T05:07:55;4.80;;;2.20;;
77022;SDS011;65952;51.440;-2.054;2024-01-16T05:10:20;4.95;;;2.20;;
77022;SDS011;65952;51.440;-2.054;2024-01-16T05:12:46;6.00;;;2.35;;
77022;SDS011;65952;51.440;-2.054;2024-01-16T05:15:11;4.43;;;2.45;;
77022;SDS011;65952;51.440;-2.054;2024-01-16T05:17:36;5.43;;;2.10;;
77022;SDS011;65952;51.440;-2.054;2024-01-16T05:20:03;4.00;;;2.20;;
77022;SDS011;65952;51.440;-2.054;2024-01-16T05:22:29;6.65;;;2.13;;
77022;SDS011;65952;51.440;-2.054;2024-01-16T05:24:54;6.53;;;2.25;;
77022;SDS011;65952;51.440;-2.054;2024-01-16T05:27:20;10.30;;;2.50;;
77022;SDS011;65952;51.440;-2.054;2024-01-16T05:29:45;4.40;;;2.17;;
77022;SDS011;65952;51.440;-2.054;2024-01-16T05:32:11;4.50;;;2.40;;
77022;SDS011;65952;51.440;-2.054;2024-01-16T05:34:38;6.15;;;2.42;;
77022;SDS011;65952;51.440;-2.054;2024-01-16T05:37:03;4.25;;;2.40;;
77022;SDS011;65952;51.440;-2.054;2024-01-16T05:39:29;4.10;;;2.10;;
77022;SDS011;65952;51.440;-2.054;2024-01-16T05:41:54;5.25;;;2.50;;
77022;SDS011;65952;51.440;-2.054;2024-01-16T05:44:19;4.75;;;2.47;;
77022;SDS011;65952;51.440;-2.054;2024-01-16T05:46:45;4.35;;;2.38;;
77022;SDS011;65952;51.440;-2.054;2024-01-16T05:49:10;8.68;;;2.63;;
77022;SDS011;65952;51.440;-2.054;2024-01-16T05:51:36;7.82;;;2.72;;
77022;SDS011;65952;51.440;-2.054;2024-01-16T05:54:01;7.07;;;2.67;;
77022;SDS011;65952;51.440;-2.054;2024-01-16T05:56:28;5.45;;;2.60;;
77022;SDS011;65952;51.440;-2.054;2024-01-16T05:58:54;6.72;;;2.58;;
77022;SDS011;65952;51.440;-2.054;2024-01-16T06:01:19;5.90;;;2.63;;
77022;SDS011;65952;51.440;-2.054;2024-01-16T06:03:44;4.95;;;2.95;;
77022;SDS011;65952;51.440;-2.054;2024-01-16T06:06:12;4.30;;;2.65;;
77022;SDS011;65952;51.440;-2.054;2024-01-16T06:08:37;6.35;;;2.70;;
77022;SDS011;65952;51.440;-2.054;2024-01-16T06:11:03;5.25;;;2.63;;
77022;SDS011;65952;51.440;-2.054;2024-01-16T06:13:28;4.97;;;2.55;;
77022;SDS011;65952;51.440;-2.054;2024-01-16T06:15:55;8.30;;;3.20;;
77022;SDS011;65952;51.440;-2.054;2024-01-16T06:18:20;5.38;;;2.92;;
77022;SDS011;65952;51.440;-2.054;2024-01-16T06:20:46;7.57;;;3.50;;
77022;SDS011;65952;51.440;-2.054;2024-01-16T06:23:11;5.57;;;2.90;;
77022;SDS011;65952;51.440;-2.054;2024-01-16T06:25:37;6.28;;;2.90;;
77022;SDS011;65952;51.440;-2.054;2024-01-16T06:28:02;6.00;;;2.88;;
77022;SDS011;65952;51.440;-2.054;2024-01-16T06:30:30;8.38;;;3.55;;
77022;SDS011;65952;51.440;-2.054;2024-01-16T06:32:56;6.60;;;3.15;;
77022;SDS011;65952;51.440;-2.054;2024-01-16T06:35:22;6.20;;;3.35;;
77022;SDS011;65952;51.440;-2.054;2024-01-16T06:37:48;7.25;;;3.03;;
77022;SDS011;65952;51.440;-2.054;2024-01-16T06:40:16;8.75;;;3.38;;
77022;SDS011;65952;51.440;-2.054;2024-01-16T06:42:41;7.72;;;3.63;;
77022;SDS011;65952;51.440;-2.054;2024-01-16T06:45:07;13.75;;;5.97;;
77022;SDS011;65952;51.440;-2.054;2024-01-16T06:47:32;9.98;;;4.20;;
77022;SDS011;65952;51.440;-2.054;2024-01-16T06:49:58;8.90;;;4.18;;
77022;SDS011;65952;51.440;-2.054;2024-01-16T06:52:23;9.13;;;4.80;;
77022;SDS011;65952;51.440;-2.054;2024-01-16T06:54:49;10.65;;;4.75;;
77022;SDS011;65952;51.440;-2.054;2024-01-16T06:57:15;9.13;;;4.82;;
77022;SDS011;65952;51.440;-2.054;2024-01-16T06:59:41;10.45;;;5.50;;
77022;SDS011;65952;51.440;-2.054;2024-01-16T07:02:06;9.93;;;5.68;;
77022;SDS011;65952;51.440;-2.054;2024-01-16T07:04:33;8.95;;;4.47;;
77022;SDS011;65952;51.440;-2.054;2024-01-16T07:06:58;8.65;;;3.85;;
77022;SDS011;65952;51.440;-2.054;2024-01-16T07:09:24;10.57;;;3.08;;
77022;SDS011;65952;51.440;-2.054;2024-01-16T07:11:50;8.95;;;2.75;;
77022;SDS011;65952;51.440;-2.054;2024-01-16T07:14:15;8.23;;;3.30;;
77022;SDS011;65952;51.440;-2.054;2024-01-16T07:16:41;6.50;;;3.15;;
77022;SDS011;65952;51.440;-2.054;2024-01-16T07:19:08;6.13;;;2.60;;
77022;SDS011;65952;51.440;-2.054;2024-01-16T07:21:33;6.28;;;2.90;;
77022;SDS011;65952;51.440;-2.054;2024-01-16T07:23:59;7.00;;;2.40;;
77022;SDS011;65952;51.440;-2.054;2024-01-16T07:26:24;8.75;;;3.30;;
77022;SDS011;65952;51.440;-2.054;2024-01-16T07:28:50;9.32;;;2.90;;
77022;SDS011;65952;51.440;-2.054;2024-01-16T07:31:15;5.13;;;2.60;;
77022;SDS011;65952;51.440;-2.054;2024-01-16T07:33:41;6.35;;;2.92;;
77022;SDS011;65952;51.440;-2.054;2024-01-16T07:36:08;5.80;;;2.85;;
77022;SDS011;65952;51.440;-2.054;2024-01-16T07:38:34;5.93;;;2.90;;
77022;SDS011;65952;51.440;-2.054;2024-01-16T07:41:05;9.73;;;3.75;;
77022;SDS011;65952;51.440;-2.054;2024-01-16T07:43:32;6.65;;;2.70;;
77022;SDS011;65952;51.440;-2.054;2024-01-16T07:45:58;5.53;;;3.00;;
77022;SDS011;65952;51.440;-2.054;2024-01-16T07:48:23;5.47;;;2.83;;
77022;SDS011;65952;51.440;-2.054;2024-01-16T07:50:49;6.68;;;3.40;;
77022;SDS011;65952;51.440;-2.054;2024-01-16T07:53:15;9.10;;;3.05;;
77022;SDS011;65952;51.440;-2.054;2024-01-16T07:55:41;6.72;;;3.20;;
77022;SDS011;65952;51.440;-2.054;2024-01-16T07:58:12;5.55;;;2.85;;
77022;SDS011;65952;51.440;-2.054;2024-01-16T08:00:47;6.32;;;3.35;;
77022;SDS011;65952;51.440;-2.054;2024-01-16T08:03:12;10.35;;;3.40;;
77022;SDS011;65952;51.440;-2.054;2024-01-16T08:05:39;6.03;;;3.40;;
77022;SDS011;65952;51.440;-2.054;2024-01-16T08:08:04;7.57;;;4.38;;
77022;SDS011;65952;51.440;-2.054;2024-01-16T08:10:30;6.70;;;3.30;;
77022;SDS011;65952;51.440;-2.054;2024-01-16T08:12:56;5.97;;;3.05;;
77022;SDS011;65952;51.440;-2.054;2024-01-16T08:15:21;6.63;;;3.25;;
77022;SDS011;65952;51.440;-2.054;2024-01-16T08:17:47;8.60;;;3.30;;
77022;SDS011;65952;51.440;-2.054;2024-01-16T08:20:13;6.22;;;3.20;;
77022;SDS011;65952;51.440;-2.054;2024-01-16T08:22:38;8.75;;;3.30;;
77022;SDS011;65952;51.440;-2.054;2024-01-16T08:25:04;6.20;;;3.28;;
77022;SDS011;65952;51.440;-2.054;2024-01-16T08:27:30;6.35;;;2.92;;
77022;SDS011;65952;51.440;-2.054;2024-01-16T08:29:56;6.30;;;2.63;;
77022;SDS011;65952;51.440;-2.054;2024-01-16T08:32:21;5.75;;;2.75;;
77022;SDS011;65952;51.440;-2.054;2024-01-16T08:34:47;6.22;;;3.00;;
77022;SDS011;65952;51.440;-2.054;2024-01-16T08:37:12;6.20;;;2.47;;
77022;SDS011;65952;51.440;-2.054;2024-01-16T08:39:37;6.63;;;2.80;;
77022;SDS011;65952;51.440;-2.054;2024-01-16T08:42:03;5.60;;;2.88;;
77022;SDS011;65952;51.440;-2.054;2024-01-16T08:44:29;10.35;;;3.10;;
77022;SDS011;65952;51.440;-2.054;2024-01-16T08:46:54;7.03;;;3.22;;
77022;SDS011;65952;51.440;-2.054;2024-01-16T08:49:20;6.50;;;3.30;;
77022;SDS011;65952;51.440;-2.054;2024-01-16T08:51:45;5.50;;;3.03;;
77022;SDS011;65952;51.440;-2.054;2024-01-16T08:54:11;5.35;;;3.08;;
77022;SDS011;65952;51.440;-2.054;2024-01-16T08:56:36;5.00;;;2.70;;
77022;SDS011;65952;51.440;-2.054;2024-01-16T08:59:02;5.38;;;2.97;;
77022;SDS011;65952;51.440;-2.054;2024-01-16T09:01:27;5.93;;;3.50;;
77022;SDS011;65952;51.440;-2.054;2024-01-16T09:03:55;7.32;;;2.95;;
77022;SDS011;65952;51.440;-2.054;2024-01-16T09:06:22;6.13;;;3.00;;
77022;SDS011;65952;51.440;-2.054;2024-01-16T09:08:55;4.88;;;2.80;;
77022;SDS011;65952;51.440;-2.054;2024-01-16T09:11:20;6.35;;;2.83;;
77022;SDS011;65952;51.440;-2.054;2024-01-16T09:13:45;7.82;;;2.80;;
77022;SDS011;65952;51.440;-2.054;2024-01-16T09:16:11;6.53;;;2.55;;
77022;SDS011;65952;51.440;-2.054;2024-01-16T09:18:36;9.48;;;3.00;;
77022;SDS011;65952;51.440;-2.054;2024-01-16T09:21:02;6.78;;;2.92;;
77022;SDS011;65952;51.440;-2.054;2024-01-16T09:23:27;7.18;;;3.00;;
77022;SDS011;65952;51.440;-2.054;2024-01-16T09:25:53;5.05;;;3.00;;
77022;SDS011;65952;51.440;-2.054;2024-01-16T09:28:18;7.05;;;2.80;;
77022;SDS011;65952;51.440;-2.054;2024-01-16T09:30:44;4.47;;;2.55;;
77022;SDS011;65952;51.440;-2.054;2024-01-16T09:33:09;3.95;;;2.30;;
77022;SDS011;65952;51.440;-2.054;2024-01-16T09:35:35;6.60;;;2.30;;
77022;SDS011;65952;51.440;-2.054;2024-01-16T09:38:01;4.50;;;2.33;;
77022;SDS011;65952;51.440;-2.054;2024-01-16T09:40:26;6.55;;;2.50;;
77022;SDS011;65952;51.440;-2.054;2024-01-16T09:42:52;4.80;;;2.25;;
77022;SDS011;65952;51.440;-2.054;2024-01-16T09:45:24;6.00;;;2.38;;
77022;SDS011;65952;51.440;-2.054;2024-01-16T09:47:53;6.57;;;2.65;;
77022;SDS011;65952;51.440;-2.054;2024-01-16T09:50:19;5.55;;;2.17;;
77022;SDS011;65952;51.440;-2.054;2024-01-16T09:52:45;7.93;;;2.50;;
77022;SDS011;65952;51.440;-2.054;2024-01-16T09:55:12;7.10;;;2.70;;
77022;SDS011;65952;51.440;-2.054;2024-01-16T09:57:39;5.75;;;3.30;;
77022;SDS011;65952;51.440;-2.054;2024-01-16T10:00:06;10.02;;;3.35;;
77022;SDS011;65952;51.440;-2.054;2024-01-16T10:02:36;5.45;;;3.15;;
77022;SDS011;65952;51.440;-2.054;2024-01-16T10:05:14;6.22;;;3.00;;
77022;SDS011;65952;51.440;-2.054;2024-01-16T10:07:41;6.72;;;3.00;;
77022;SDS011;65952;51.440;-2.054;2024-01-16T10:10:10;6.30;;;2.72;;
77022;SDS011;65952;51.440;-2.054;2024-01-16T10:12:38;4.90;;;2.58;;
77022;SDS011;65952;51.440;-2.054;2024-01-16T10:15:05;4.90;;;2.40;;
77022;SDS011;65952;51.440;-2.054;2024-01-16T10:17:39;7.32;;;2.90;;
77022;SDS011;65952;51.440;-2.054;2024-01-16T10:20:06;8.13;;;3.65;;
77022;SDS011;65952;51.440;-2.054;2024-01-16T10:22:32;8.18;;;4.07;;
77022;SDS011;65952;51.440;-2.054;2024-01-16T10:25:08;15.77;;;4.10;;
77022;SDS011;65952;51.440;-2.054;2024-01-16T10:27:35;5.70;;;2.85;;
77022;SDS011;65952;51.440;-2.054;2024-01-16T10:30:01;6.50;;;3.03;;
77022;SDS011;65952;51.440;-2.054;2024-01-16T10:32:31;5.22;;;2.80;;
77022;SDS011;65952;51.440;-2.054;2024-01-16T10:35:07;5.90;;;2.47;;
77022;SDS011;65952;51.440;-2.054;2024-01-16T10:40:15;7.15;;;2.70;;
77022;SDS011;65952;51.440;-2.054;2024-01-16T10:42:41;5.32;;;2.70;;
77022;SDS011;65952;51.440;-2.054;2024-01-16T10:45:08;4.47;;;2.50;;
77022;SDS011;65952;51.440;-2.054;2024-01-16T10:47:33;4.57;;;2.38;;
77022;SDS011;65952;51.440;-2.054;2024-01-16T10:50:02;5.50;;;2.72;;
77022;SDS011;65952;51.440;-2.054;2024-01-16T10:52:30;5.00;;;2.78;;
77022;SDS011;65952;51.440;-2.054;2024-01-16T10:54:58;5.65;;;2.40;;
77022;SDS011;65952;51.440;-2.054;2024-01-16T10:57:29;7.40;;;2.70;;
77022;SDS011;65952;51.440;-2.054;2024-01-16T11:00:04;5.18;;;2.65;;
77022;SDS011;65952;51.440;-2.054;2024-01-16T11:02:37;5.30;;;2.70;;
77022;SDS011;65952;51.440;-2.054;2024-01-16T11:05:08;6.00;;;2.85;;
77022;SDS011;65952;51.440;-2.054;2024-01-16T11:07:36;6.22;;;2.50;;
77022;SDS011;65952;51.440;-2.054;2024-01-16T11:10:02;5.68;;;2.65;;
77022;SDS011;65952;51.440;-2.054;2024-01-16T11:12:29;6.85;;;2.67;;
77022;SDS011;65952;51.440;-2.054;2024-01-16T11:14:56;7.07;;;2.40;;
77022;SDS011;65952;51.440;-2.054;2024-01-16T11:17:26;5.90;;;2.53;;
77022;SDS011;65952;51.440;-2.054;2024-01-16T11:19:52;7.20;;;2.60;;
77022;SDS011;65952;51.440;-2.054;2024-01-16T11:22:18;6.20;;;2.45;;
77022;SDS011;65952;51.440;-2.054;2024-01-16T11:24:44;5.28;;;2.50;;
77022;SDS011;65952;51.440;-2.054;2024-01-16T11:27:20;6.65;;;2.55;;
77022;SDS011;65952;51.440;-2.054;2024-01-16T11:29:50;4.55;;;2.20;;
77022;SDS011;65952;51.440;-2.054;2024-01-16T11:32:32;5.63;;;2.60;;
77022;SDS011;65952;51.440;-2.054;2024-01-16T11:34:59;5.70;;;3.22;;
77022;SDS011;65952;51.440;-2.054;2024-01-16T11:37:28;7.63;;;2.90;;
77022;SDS011;65952;51.440;-2.054;2024-01-16T11:42:42;7.78;;;2.40;;
77022;SDS011;65952;51.440;-2.054;2024-01-16T11:45:47;5.28;;;2.55;;
77022;SDS011;65952;51.440;-2.054;2024-01-16T11:48:08;5.15;;;2.33;;
77022;SDS011;65952;51.440;-2.054;2024-01-16T11:50:36;7.50;;;2.15;;
77022;SDS011;65952;51.440;-2.054;2024-01-16T11:53:02;6.53;;;2.15;;
77022;SDS011;65952;51.440;-2.054;2024-01-16T11:55:28;5.63;;;2.40;;
77022;SDS011;65952;51.440;-2.054;2024-01-16T12:00:44;5.80;;;2.53;;
77022;SDS011;65952;51.440;-2.054;2024-01-16T12:03:11;5.80;;;2.60;;
77022;SDS011;65952;51.440;-2.054;2024-01-16T12:05:39;6.53;;;2.83;;
77022;SDS011;65952;51.440;-2.054;2024-01-16T12:08:04;8.90;;;3.00;;
77022;SDS011;65952;51.440;-2.054;2024-01-16T12:10:31;5.82;;;2.65;;
77022;SDS011;65952;51.440;-2.054;2024-01-16T12:12:57;7.50;;;2.70;;
77022;SDS011;65952;51.440;-2.054;2024-01-16T12:15:24;7.28;;;2.63;;
77022;SDS011;65952;51.440;-2.054;2024-01-16T12:17:53;11.77;;;3.85;;
77022;SDS011;65952;51.440;-2.054;2024-01-16T12:20:20;5.93;;;2.90;;
77022;SDS011;65952;51.440;-2.054;2024-01-16T12:22:56;8.10;;;3.17;;
77022;SDS011;65952;51.440;-2.054;2024-01-16T12:25:24;5.93;;;2.80;;
77022;SDS011;65952;51.440;-2.054;2024-01-16T12:27:56;5.55;;;2.97;;
77022;SDS011;65952;51.440;-2.054;2024-01-16T12:30:26;7.53;;;3.88;;
77022;SDS011;65952;51.440;-2.054;2024-01-16T12:33:02;8.73;;;3.80;;
77022;SDS011;65952;51.440;-2.054;2024-01-16T12:35:27;6.38;;;3.10;;
77022;SDS011;65952;51.440;-2.054;2024-01-16T12:38:03;5.95;;;2.97;;
77022;SDS011;65952;51.440;-2.054;2024-01-16T12:40:36;11.00;;;3.25;;
77022;SDS011;65952;51.440;-2.054;2024-01-16T12:43:03;9.20;;;3.33;;
77022;SDS011;65952;51.440;-2.054;2024-01-16T12:45:29;7.22;;;3.05;;
77022;SDS011;65952;51.440;-2.054;2024-01-16T12:47:56;9.20;;;3.30;;
77022;SDS011;65952;51.440;-2.054;2024-01-16T12:50:25;6.75;;;2.47;;
77022;SDS011;65952;51.440;-2.054;2024-01-16T12:55:37;5.55;;;2.70;;
77022;SDS011;65952;51.440;-2.054;2024-01-16T13:00:45;8.88;;;3.72;;
77022;SDS011;65952;51.440;-2.054;2024-01-16T13:03:15;7.30;;;3.13;;
77022;SDS011;65952;51.440;-2.054;2024-01-16T13:05:43;7.55;;;2.83;;
77022;SDS011;65952;51.440;-2.054;2024-01-16T13:08:09;8.38;;;2.80;;
77022;SDS011;65952;51.440;-2.054;2024-01-16T13:10:42;8.15;;;3.08;;
77022;SDS011;65952;51.440;-2.054;2024-01-16T13:13:17;7.65;;;3.13;;
77022;SDS011;65952;51.440;-2.054;2024-01-16T13:15:47;5.97;;;2.53;;
77022;SDS011;65952;51.440;-2.054;2024-01-16T13:18:17;7.63;;;3.67;;
77022;SDS011;65952;51.440;-2.054;2024-01-16T13:20:47;6.32;;;2.70;;
77022;SDS011;65952;51.440;-2.054;2024-01-16T13:23:16;8.05;;;2.58;;
77022;SDS011;65952;51.440;-2.054;2024-01-16T13:25:45;5.35;;;2.35;;
77022;SDS011;65952;51.440;-2.054;2024-01-16T13:28:15;7.40;;;2.83;;
77022;SDS011;65952;51.440;-2.054;2024-01-16T13:30:42;3.72;;;2.10;;
77022;SDS011;65952;51.440;-2.054;2024-01-16T13:33:12;3.15;;;1.83;;
77022;SDS011;65952;51.440;-2.054;2024-01-16T13:35:39;3.05;;;1.70;;
77022;SDS011;65952;51.440;-2.054;2024-01-16T13:38:08;3.65;;;1.80;;
77022;SDS011;65952;51.440;-2.054;2024-01-16T13:40:35;9.45;;;2.20;;
77022;SDS011;65952;51.440;-2.054;2024-01-16T13:43:02;8.82;;;2.15;;
77022;SDS011;65952;51.440;-2.054;2024-01-16T13:45:28;3.67;;;1.73;;
77022;SDS011;65952;51.440;-2.054;2024-01-16T13:47:56;5.28;;;1.65;;
77022;SDS011;65952;51.440;-2.054;2024-01-16T13:50:28;5.72;;;2.00;;
77022;SDS011;65952;51.440;-2.054;2024-01-16T13:52:54;5.72;;;1.90;;
77022;SDS011;65952;51.440;-2.054;2024-01-16T13:55:20;4.22;;;1.80;;
77022;SDS011;65952;51.440;-2.054;2024-01-16T13:57:46;6.30;;;1.90;;
77022;SDS011;65952;51.440;-2.054;2024-01-16T14:00:12;4.72;;;1.88;;
77022;SDS011;65952;51.440;-2.054;2024-01-16T14:02:40;4.80;;;2.30;;
77022;SDS011;65952;51.440;-2.054;2024-01-16T14:05:16;5.65;;;2.17;;
77022;SDS011;65952;51.440;-2.054;2024-01-16T14:07:47;4.75;;;1.92;;
77022;SDS011;65952;51.440;-2.054;2024-01-16T14:10:16;5.07;;;2.30;;
77022;SDS011;65952;51.440;-2.054;2024-01-16T14:12:42;6.55;;;2.00;;
77022;SDS011;65952;51.440;-2.054;2024-01-16T14:15:09;3.72;;;1.90;;
77022;SDS011;65952;51.440;-2.054;2024-01-16T14:17:45;4.47;;;2.10;;
77022;SDS011;65952;51.440;-2.054;2024-01-16T14:20:12;3.97;;;2.00;;
77022;SDS011;65952;51.440;-2.054;2024-01-16T14:22:39;4.70;;;2.20;;
77022;SDS011;65952;51.440;-2.054;2024-01-16T14:25:06;4.25;;;1.80;;
77022;SDS011;65952;51.440;-2.054;2024-01-16T14:27:42;4.20;;;1.98;;
77022;SDS011;65952;51.440;-2.054;2024-01-16T14:30:13;3.25;;;1.90;;
77022;SDS011;65952;51.440;-2.054;2024-01-16T14:32:40;5.53;;;2.10;;
77022;SDS011;65952;51.440;-2.054;2024-01-16T14:35:06;5.20;;;2.30;;
77022;SDS011;65952;51.440;-2.054;2024-01-16T14:37:34;4.35;;;2.38;;
77022;SDS011;65952;51.440;-2.054;2024-01-16T14:40:00;5.28;;;2.97;;
77022;SDS011;65952;51.440;-2.054;2024-01-16T14:42:40;5.35;;;2.45;;
77022;SDS011;65952;51.440;-2.054;2024-01-16T14:45:06;5.40;;;2.60;;
77022;SDS011;65952;51.440;-2.054;2024-01-16T14:47:33;6.32;;;2.45;;